Chemical Pioneer — KAFO — position and weather

sailwx.info

Track history (hours):
 
Tides and Currents Weather Stations Pressure Air Temp Water Temp Dewpoint Dewpoint Depression Visibility Wind Speed Wind Dir Waves Ship Positions

Chemical Pioneer

Owner: US Shipping Corp, Edison, NJ. More information available from US FCC via Universal Licensing System and Coast Guard Vessel Documentation Center.

Last reported at 2017-Aug-19 02:34 UTC. Time now 2017-Aug-20 09:57 UTC.
Position N 34°43' W 075°17'.

Type: Tanker. MMSI: 366032000.

Date/timePositionNaut miles runAvg speedWind from/ knotsBaromVisibWave heightAir tempDewpointWater temp
2017-Aug-19 02:34N 34°43' W 075°17'1117.7
2017-Aug-19 01:58N 34°35' W 075°27'917.6
2017-Aug-19 01:29N 34°30' W 075°35'1018.2
2017-Aug-19 00:56N 34°24' W 075°44'818.7
2017-Aug-19 00:30N 34°19' W 075°52'21216.0
2017-Aug-18 11:13N 32°01' W 079°05'418.1
2017-Aug-18 11:00N 31°59' W 079°09'917.6
2017-Aug-18 10:30N 31°53' W 079°16'917.9
2017-Aug-18 10:00N 31°47' W 079°24'917.8
2017-Aug-18 09:30N 31°40' W 079°31'917.1
2017-Aug-18 09:00N 31°34' W 079°39'110 3.7
2017-Aug-17 02:54N 30°03' W 080°50'512.9
2017-Aug-17 02:28N 30°00' W 080°44'815.0
2017-Aug-17 01:58N 29°56' W 080°37'1814.8
2017-Aug-17 00:44N 29°44' W 080°21'16114.1
2017-Aug-16 13:18N 27°07' W 079°43'616.6
2017-Aug-16 12:55N 27°01' W 079°42'2617.4
2017-Aug-16 11:24N 26°35' W 079°45'616.3
2017-Aug-16 11:01N 26°28' W 079°46'816.3
2017-Aug-16 10:31N 26°20' W 079°47'816.3
2017-Aug-16 10:00N 26°12' W 079°48'816.3
2017-Aug-16 09:30N 26°04' W 079°50'816.2
2017-Aug-16 09:00N 25°56' W 079°51'816.1
2017-Aug-16 08:31N 25°48' W 079°52'816.0
2017-Aug-16 08:00N 25°40' W 079°53'816.0
2017-Aug-16 07:30N 25°32' W 079°54'  
2017-Aug-11 06:47N 29°21' W 094°43'312.7
2017-Aug-11 06:31N 29°21' W 094°47'5 9.8
2017-Aug-11 06:01N 29°23' W 094°53'2 4.1
2017-Aug-11 05:30N 29°22' W 094°55'0 0.0
2017-Aug-10 16:20N 29°22' W 094°55'1 1.8
2017-Aug-10 16:00N 29°22' W 094°54'2 4.7
2017-Aug-10 15:31N 29°23' W 094°52'611.6
2017-Aug-10 15:00N 29°21' W 094°46'  
Track history (hours):
 
Tides and Currents Weather Stations Pressure Air Temp Water Temp Dewpoint Dewpoint Depression Visibility Wind Speed Wind Dir Waves Ship Positions

Chemical Pioneer

Owner: US Shipping Corp, Edison, NJ. More information available from US FCC via Universal Licensing System and Coast Guard Vessel Documentation Center.

Last reported at 2017-Aug-19 02:34 UTC. Time now 2017-Aug-20 09:57 UTC.
Position N 34°43' W 075°17'.

Type: Tanker. MMSI: 366032000.

Date/timePositionNaut miles runAvg speedWind from/ knotsBaromVisibWave heightAir tempDewpointWater temp
2017-Aug-19 02:34N 34°43' W 075°17'1117.7
2017-Aug-19 01:58N 34°35' W 075°27'917.6
2017-Aug-19 01:29N 34°30' W 075°35'1018.2
2017-Aug-19 00:56N 34°24' W 075°44'818.7
2017-Aug-19 00:30N 34°19' W 075°52'21216.0
2017-Aug-18 11:13N 32°01' W 079°05'418.1
2017-Aug-18 11:00N 31°59' W 079°09'917.6
2017-Aug-18 10:30N 31°53' W 079°16'917.9
2017-Aug-18 10:00N 31°47' W 079°24'917.8
2017-Aug-18 09:30N 31°40' W 079°31'917.1
2017-Aug-18 09:00N 31°34' W 079°39'110 3.7
2017-Aug-17 02:54N 30°03' W 080°50'512.9
2017-Aug-17 02:28N 30°00' W 080°44'815.0
2017-Aug-17 01:58N 29°56' W 080°37'1814.8
2017-Aug-17 00:44N 29°44' W 080°21'16114.1
2017-Aug-16 13:18N 27°07' W 079°43'616.6
2017-Aug-16 12:55N 27°01' W 079°42'2617.4
2017-Aug-16 11:24N 26°35' W 079°45'616.3
2017-Aug-16 11:01N 26°28' W 079°46'816.3
2017-Aug-16 10:31N 26°20' W 079°47'816.3
2017-Aug-16 10:00N 26°12' W 079°48'816.3
2017-Aug-16 09:30N 26°04' W 079°50'816.2
2017-Aug-16 09:00N 25°56' W 079°51'816.1
2017-Aug-16 08:31N 25°48' W 079°52'816.0
2017-Aug-16 08:00N 25°40' W 079°53'816.0
2017-Aug-16 07:30N 25°32' W 079°54'  
2017-Aug-11 06:47N 29°21' W 094°43'312.7
2017-Aug-11 06:31N 29°21' W 094°47'5 9.8
2017-Aug-11 06:01N 29°23' W 094°53'2 4.1
2017-Aug-11 05:30N 29°22' W 094°55'0 0.0
2017-Aug-10 16:20N 29°22' W 094°55'1 1.8
2017-Aug-10 16:00N 29°22' W 094°54'2 4.7
2017-Aug-10 15:31N 29°23' W 094°52'611.6
2017-Aug-10 15:00N 29°21' W 094°46'  

Dump ship's entire track history